sensor_id;sensor_type;location;lat;lon;timestamp;P1;durP1;ratioP1;P2;durP2;ratioP2
18653;SDS011;9456;47.824;16.228;2022-11-15T05:53:52;104.37;;;27.07;;
18653;SDS011;9456;47.824;16.228;2022-11-15T05:56:41;153.27;;;26.40;;
18653;SDS011;9456;47.824;16.228;2022-11-15T05:59:11;101.90;;;24.73;;
18653;SDS011;9456;47.824;16.228;2022-11-15T06:02:12;122.50;;;27.17;;
18653;SDS011;9456;47.824;16.228;2022-11-15T06:05:17;129.40;;;26.80;;
18653;SDS011;9456;47.824;16.228;2022-11-15T06:08:05;88.27;;;24.90;;
18653;SDS011;9456;47.824;16.228;2022-11-15T06:10:41;56.37;;;23.33;;
18653;SDS011;9456;47.824;16.228;2022-11-15T06:13:23;66.93;;;22.27;;
18653;SDS011;9456;47.824;16.228;2022-11-15T06:16:13;94.40;;;24.50;;
18653;SDS011;9456;47.824;16.228;2022-11-15T06:18:42;71.70;;;23.63;;
18653;SDS011;9456;47.824;16.228;2022-11-15T06:21:33;53.27;;;22.37;;
18653;SDS011;9456;47.824;16.228;2022-11-15T06:24:16;92.33;;;24.80;;
18653;SDS011;9456;47.824;16.228;2022-11-15T06:33:13;58.17;;;22.73;;
18653;SDS011;9456;47.824;16.228;2022-11-15T06:35:43;111.13;;;23.20;;
18653;SDS011;9456;47.824;16.228;2022-11-15T06:38:24;54.63;;;22.50;;
18653;SDS011;9456;47.824;16.228;2022-11-15T06:41:11;64.60;;;23.70;;
18653;SDS011;9456;47.824;16.228;2022-11-15T06:43:53;63.13;;;22.90;;
18653;SDS011;9456;47.824;16.228;2022-11-15T06:46:26;75.87;;;24.27;;
18653;SDS011;9456;47.824;16.228;2022-11-15T06:55:03;62.57;;;24.73;;
18653;SDS011;9456;47.824;16.228;2022-11-15T06:57:47;64.63;;;23.23;;
18653;SDS011;9456;47.824;16.228;2022-11-15T07:00:16;59.20;;;23.67;;
18653;SDS011;9456;47.824;16.228;2022-11-15T07:02:46;68.17;;;24.87;;
18653;SDS011;9456;47.824;16.228;2022-11-15T07:05:15;55.53;;;24.30;;
18653;SDS011;9456;47.824;16.228;2022-11-15T07:07:50;55.53;;;23.43;;
18653;SDS011;9456;47.824;16.228;2022-11-15T07:10:25;55.00;;;22.33;;
18653;SDS011;9456;47.824;16.228;2022-11-15T07:12:57;47.60;;;22.40;;
18653;SDS011;9456;47.824;16.228;2022-11-15T07:15:40;49.13;;;21.93;;
18653;SDS011;9456;47.824;16.228;2022-11-15T07:18:10;49.17;;;22.53;;
18653;SDS011;9456;47.824;16.228;2022-11-15T07:20:38;50.83;;;21.53;;
18653;SDS011;9456;47.824;16.228;2022-11-15T07:23:11;49.03;;;21.47;;
18653;SDS011;9456;47.824;16.228;2022-11-15T07:28:39;50.37;;;22.67;;
18653;SDS011;9456;47.824;16.228;2022-11-15T07:31:17;46.17;;;20.93;;
18653;SDS011;9456;47.824;16.228;2022-11-15T07:33:51;36.43;;;18.93;;
18653;SDS011;9456;47.824;16.228;2022-11-15T07:36:19;36.93;;;19.17;;
18653;SDS011;9456;47.824;16.228;2022-11-15T07:39:02;36.20;;;19.20;;
18653;SDS011;9456;47.824;16.228;2022-11-15T07:41:56;35.70;;;18.87;;
18653;SDS011;9456;47.824;16.228;2022-11-15T07:44:52;38.40;;;18.53;;
18653;SDS011;9456;47.824;16.228;2022-11-15T07:47:25;39.90;;;18.77;;
18653;SDS011;9456;47.824;16.228;2022-11-15T07:49:56;31.63;;;17.77;;
18653;SDS011;9456;47.824;16.228;2022-11-15T07:52:38;36.60;;;18.53;;
18653;SDS011;9456;47.824;16.228;2022-11-15T07:55:08;33.70;;;17.53;;
18653;SDS011;9456;47.824;16.228;2022-11-15T07:57:39;32.33;;;18.87;;
18653;SDS011;9456;47.824;16.228;2022-11-15T08:06:11;30.20;;;17.77;;
18653;SDS011;9456;47.824;16.228;2022-11-15T08:08:53;30.93;;;17.80;;
18653;SDS011;9456;47.824;16.228;2022-11-15T08:11:22;35.47;;;17.30;;
18653;SDS011;9456;47.824;16.228;2022-11-15T08:14:05;31.57;;;17.60;;
18653;SDS011;9456;47.824;16.228;2022-11-15T08:16:33;29.20;;;17.70;;
18653;SDS011;9456;47.824;16.228;2022-11-15T08:19:04;30.30;;;17.80;;
18653;SDS011;9456;47.824;16.228;2022-11-15T08:21:41;30.47;;;18.37;;
18653;SDS011;9456;47.824;16.228;2022-11-15T08:24:09;31.80;;;17.70;;
18653;SDS011;9456;47.824;16.228;2022-11-15T08:26:43;36.50;;;18.83;;
18653;SDS011;9456;47.824;16.228;2022-11-15T08:29:14;34.43;;;19.07;;
18653;SDS011;9456;47.824;16.228;2022-11-15T08:31:55;29.00;;;17.70;;
18653;SDS011;9456;47.824;16.228;2022-11-15T08:34:32;39.23;;;17.27;;
18653;SDS011;9456;47.824;16.228;2022-11-15T08:39:59;32.00;;;17.67;;
18653;SDS011;9456;47.824;16.228;2022-11-15T08:42:43;37.47;;;19.43;;
18653;SDS011;9456;47.824;16.228;2022-11-15T08:45:28;35.47;;;18.50;;
18653;SDS011;9456;47.824;16.228;2022-11-15T08:48:16;28.53;;;16.13;;
18653;SDS011;9456;47.824;16.228;2022-11-15T08:51:03;33.00;;;17.80;;
18653;SDS011;9456;47.824;16.228;2022-11-15T08:54:17;37.73;;;17.83;;
18653;SDS011;9456;47.824;16.228;2022-11-15T11:37:49;41.37;;;22.47;;
18653;SDS011;9456;47.824;16.228;2022-11-15T11:41:12;41.10;;;21.77;;
18653;SDS011;9456;47.824;16.228;2022-11-15T11:47:18;48.40;;;24.37;;
18653;SDS011;9456;47.824;16.228;2022-11-15T13:57:43;50.47;;;27.93;;
18653;SDS011;9456;47.824;16.228;2022-11-15T14:00:44;52.33;;;28.80;;
18653;SDS011;9456;47.824;16.228;2022-11-15T14:03:29;54.47;;;28.93;;
18653;SDS011;9456;47.824;16.228;2022-11-15T14:06:42;55.67;;;28.73;;
18653;SDS011;9456;47.824;16.228;2022-11-15T14:12:28;58.07;;;30.20;;
18653;SDS011;9456;47.824;16.228;2022-11-15T16:54:02;94.97;;;36.03;;
18653;SDS011;9456;47.824;16.228;2022-11-15T17:02:40;98.30;;;36.10;;
18653;SDS011;9456;47.824;16.228;2022-11-15T17:05:24;101.40;;;35.90;;
